createdAt,value
2023-02-12T00:01:01.655Z,20.90
2023-02-12T00:03:55.527Z,16.70
2023-02-12T00:06:49.548Z,17.40
2023-02-12T00:09:43.924Z,18.00
2023-02-12T00:12:37.103Z,16.10
2023-02-12T00:15:31.620Z,15.90
2023-02-12T00:18:24.829Z,15.90
2023-02-12T00:21:18.646Z,15.20
2023-02-12T00:24:12.574Z,17.10
2023-02-12T00:27:06.347Z,17.70
2023-02-12T00:30:00.178Z,15.40
2023-02-12T00:32:54.670Z,17.80
2023-02-12T00:35:48.724Z,16.00
2023-02-12T00:38:42.534Z,16.70
2023-02-12T00:41:36.329Z,16.90
2023-02-12T00:44:30.081Z,14.10
2023-02-12T00:47:23.827Z,12.00
2023-02-12T00:50:17.857Z,14.40
2023-02-12T00:53:11.771Z,17.40
2023-02-12T00:56:06.613Z,15.40
2023-02-12T00:58:59.779Z,21.00
2023-02-12T01:01:53.705Z,16.20
2023-02-12T01:04:47.639Z,17.70
2023-02-12T01:07:42.179Z,17.40
2023-02-12T01:10:36.025Z,16.60
2023-02-12T01:13:30.422Z,16.10
2023-02-12T01:16:25.423Z,18.40
2023-02-12T01:19:18.753Z,18.90
2023-02-12T01:22:12.594Z,13.60
2023-02-12T01:25:07.144Z,16.60
2023-02-12T01:28:01.309Z,15.60
2023-02-12T01:30:55.256Z,16.50
2023-02-12T01:33:51.216Z,20.20
2023-02-12T01:36:45.226Z,21.40
2023-02-12T01:39:39.325Z,12.40
2023-02-12T01:42:33.174Z,13.30
2023-02-12T01:45:54.373Z,14.10
2023-02-12T01:48:48.359Z,17.50
2023-02-12T01:51:42.328Z,19.50
2023-02-12T01:54:35.921Z,16.10
2023-02-12T01:57:30.123Z,19.00
2023-02-12T02:00:25.229Z,19.30
2023-02-12T02:03:18.481Z,16.30
2023-02-12T02:06:13.974Z,16.90
2023-02-12T02:09:07.194Z,12.90
2023-02-12T02:12:18.540Z,12.40
2023-02-12T02:15:12.765Z,14.10
2023-02-12T02:18:10.035Z,16.30
2023-02-12T02:21:24.159Z,15.10
2023-02-12T02:24:52.009Z,17.50
2023-02-12T02:27:46.980Z,15.60
2023-02-12T02:30:45.476Z,15.00
2023-02-12T02:33:41.287Z,19.50
2023-02-12T02:36:47.927Z,17.50
2023-02-12T02:39:53.754Z,18.00
2023-02-12T02:42:50.635Z,16.60
2023-02-12T02:45:45.335Z,12.70
2023-02-12T02:48:40.130Z,17.20
2023-02-12T02:51:35.775Z,19.00
2023-02-12T02:54:31.996Z,17.20
2023-02-12T02:57:27.569Z,21.30
2023-02-12T03:00:22.622Z,20.10
2023-02-12T03:03:20.137Z,17.00
2023-02-12T03:06:15.489Z,22.80
2023-02-12T03:09:13.622Z,17.80
2023-02-12T03:12:10.045Z,18.80
2023-02-12T03:17:56.983Z,17.10
2023-02-12T03:20:53.086Z,18.90
2023-02-12T03:23:48.204Z,20.40
2023-02-12T03:26:47.115Z,16.60
2023-02-12T03:29:40.286Z,19.00
2023-02-12T03:32:37.213Z,16.40
2023-02-12T03:35:33.125Z,19.30
2023-02-12T03:38:32.071Z,16.10
2023-02-12T03:41:26.903Z,18.30
2023-02-12T03:44:24.806Z,16.10
2023-02-12T03:47:26.346Z,19.50
2023-02-12T03:50:20.344Z,21.80
2023-02-12T03:53:14.035Z,20.00
2023-02-12T03:56:09.199Z,21.70
2023-02-12T03:59:02.336Z,19.70
2023-02-12T04:01:58.768Z,21.40
2023-02-12T04:04:52.030Z,19.40
2023-02-12T04:07:45.806Z,19.90
2023-02-12T04:10:50.423Z,21.50
2023-02-12T04:13:46.139Z,19.70
2023-02-12T04:16:45.362Z,17.80
2023-02-12T04:19:44.831Z,20.80
2023-02-12T04:22:46.907Z,20.10
2023-02-12T04:25:46.293Z,19.40
2023-02-12T04:28:44.156Z,20.30
2023-02-12T04:31:39.750Z,20.90
2023-02-12T04:37:29.702Z,21.60
2023-02-12T04:40:23.592Z,21.00
2023-02-12T04:43:17.784Z,22.90
2023-02-12T04:46:11.824Z,18.40
2023-02-12T04:49:05.595Z,18.00
2023-02-12T04:51:58.726Z,19.50
2023-02-12T04:54:52.481Z,18.00
2023-02-12T04:57:47.181Z,17.10
2023-02-12T05:00:41.029Z,17.40
2023-02-12T05:03:34.799Z,18.40
2023-02-12T05:06:30.320Z,19.40
2023-02-12T05:09:24.244Z,16.40
2023-02-12T05:12:18.017Z,20.80
2023-02-12T05:15:12.626Z,20.70
2023-02-12T05:18:06.088Z,17.70
2023-02-12T05:21:01.026Z,22.50
2023-02-12T05:23:54.771Z,17.80
2023-02-12T05:26:48.472Z,21.30
2023-02-12T05:29:42.414Z,21.90
2023-02-12T05:32:36.222Z,18.80
2023-02-12T05:35:29.965Z,21.20
2023-02-12T05:38:23.717Z,21.50
2023-02-12T05:41:20.005Z,23.00
2023-02-12T05:44:15.031Z,20.40
2023-02-12T05:47:09.330Z,24.50
2023-02-12T05:50:03.238Z,22.90
2023-02-12T05:52:56.997Z,25.50
2023-02-12T05:55:50.762Z,24.90
2023-02-12T05:58:46.025Z,25.70
2023-02-12T06:01:40.992Z,25.60
2023-02-12T06:04:34.722Z,22.50
2023-02-12T06:07:28.549Z,23.40
2023-02-12T06:10:22.870Z,23.20
2023-02-12T06:13:16.711Z,21.80
2023-02-12T06:16:20.941Z,22.60
2023-02-12T06:19:14.903Z,25.50
2023-02-12T06:22:08.724Z,26.80
2023-02-12T06:25:02.438Z,23.90
2023-02-12T06:27:57.464Z,20.70
2023-02-12T06:30:51.466Z,25.10
2023-02-12T06:33:45.360Z,23.70
2023-02-12T06:36:41.379Z,19.50
2023-02-12T06:39:34.548Z,22.00
2023-02-12T06:42:28.388Z,22.20
2023-02-12T06:45:22.161Z,22.90
2023-02-12T06:48:16.003Z,22.80
2023-02-12T06:51:11.436Z,21.30
2023-02-12T06:54:03.870Z,24.30
2023-02-12T06:56:57.708Z,22.70
2023-02-12T06:59:51.625Z,22.60
2023-02-12T07:02:45.461Z,18.30
2023-02-12T07:05:41.839Z,22.10
2023-02-12T07:11:28.648Z,20.90
2023-02-12T07:14:22.716Z,20.90
2023-02-12T07:17:16.258Z,18.30
2023-02-12T07:20:12.053Z,20.20
2023-02-12T07:23:05.181Z,20.50
2023-02-12T07:25:59.523Z,20.70
2023-02-12T07:28:54.232Z,20.10
2023-02-12T07:31:48.302Z,21.20
2023-02-12T07:34:42.316Z,22.50
2023-02-12T07:37:36.244Z,20.80
2023-02-12T07:40:30.728Z,16.70
2023-02-12T07:43:23.908Z,16.30
2023-02-12T07:46:18.859Z,17.30
2023-02-12T07:49:15.251Z,15.30
2023-02-12T07:52:09.083Z,16.30
2023-02-12T07:57:57.143Z,12.50
2023-02-12T08:00:52.758Z,13.00
2023-02-12T08:03:46.907Z,12.00
2023-02-12T08:06:42.346Z,11.80
2023-02-12T08:12:28.364Z,11.00
2023-02-12T08:15:22.250Z,12.10
2023-02-12T08:18:15.979Z,10.40
2023-02-12T08:21:10.912Z,10.10
2023-02-12T08:24:04.500Z,10.50
2023-02-12T08:26:58.466Z,8.60
2023-02-12T08:29:52.253Z,8.70
2023-02-12T08:32:46.606Z,8.20
2023-02-12T08:35:40.086Z,9.60
2023-02-12T08:38:34.739Z,8.50
2023-02-12T08:41:29.833Z,9.80
2023-02-12T08:44:23.137Z,11.40
2023-02-12T08:47:16.962Z,11.30
2023-02-12T08:50:13.057Z,10.30
2023-02-12T08:53:07.764Z,11.10
2023-02-12T08:56:01.709Z,12.50
2023-02-12T08:58:55.866Z,13.20
2023-02-12T09:01:50.605Z,12.80
2023-02-12T09:04:44.312Z,12.40
2023-02-12T09:07:38.309Z,11.20
2023-02-12T09:10:32.254Z,15.20
2023-02-12T09:13:26.400Z,11.40
2023-02-12T09:16:20.292Z,12.60
2023-02-12T09:19:14.946Z,11.40
2023-02-12T09:22:08.140Z,10.10
2023-02-12T09:25:01.405Z,11.10
2023-02-12T09:27:54.588Z,11.40
2023-02-12T09:30:48.142Z,10.70
2023-02-12T09:33:41.612Z,10.70
2023-02-12T09:36:36.104Z,11.00
2023-02-12T09:39:30.778Z,12.80
2023-02-12T09:42:29.146Z,14.60
2023-02-12T09:45:23.728Z,13.70
2023-02-12T09:48:25.923Z,12.20
2023-02-12T09:51:19.637Z,10.40
2023-02-12T09:54:15.725Z,12.00
2023-02-12T09:57:13.277Z,10.50
2023-02-12T10:00:08.860Z,11.80
2023-02-12T10:03:05.479Z,10.80
2023-02-12T10:05:59.891Z,10.60
2023-02-12T10:09:24.372Z,9.70
2023-02-12T10:12:21.084Z,9.00
2023-02-12T10:15:17.961Z,12.50
2023-02-12T10:18:54.709Z,10.30
2023-02-12T10:21:52.978Z,11.30
2023-02-12T10:24:57.733Z,8.80
2023-02-12T10:27:52.130Z,7.90
2023-02-12T10:30:48.893Z,7.40
2023-02-12T10:33:44.871Z,9.80
2023-02-12T10:36:43.114Z,8.30
2023-02-12T10:39:38.091Z,8.50
2023-02-12T10:42:37.703Z,10.30
2023-02-12T10:45:33.611Z,9.90
2023-02-12T10:48:28.212Z,7.70
2023-02-12T10:51:35.500Z,8.10
2023-02-12T10:54:41.546Z,8.00
2023-02-12T10:57:34.803Z,9.00
2023-02-12T11:00:30.366Z,8.00
2023-02-12T11:03:24.635Z,10.80
2023-02-12T11:06:18.753Z,9.00
2023-02-12T11:09:27.806Z,10.40
2023-02-12T11:12:29.817Z,8.40
2023-02-12T11:15:25.496Z,9.20
2023-02-12T11:18:26.303Z,9.60
2023-02-12T11:21:23.568Z,8.70
2023-02-12T11:24:39.570Z,10.60
2023-02-12T11:27:33.254Z,12.60
2023-02-12T11:30:27.069Z,11.10
2023-02-12T11:33:31.330Z,11.90
2023-02-12T11:36:26.037Z,12.10
2023-02-12T11:39:22.436Z,13.40
2023-02-12T11:42:19.625Z,13.20
2023-02-12T11:45:19.505Z,12.80
2023-02-12T11:48:16.292Z,11.90
2023-02-12T11:51:10.520Z,12.70
2023-02-12T11:54:04.044Z,11.30
2023-02-12T11:56:57.209Z,13.30
2023-02-12T11:59:50.569Z,13.20
2023-02-12T12:02:45.490Z,12.80
2023-02-12T12:05:39.655Z,13.20
2023-02-12T12:08:39.782Z,12.70
2023-02-12T12:11:37.545Z,13.30
2023-02-12T12:14:32.753Z,12.90
2023-02-12T12:17:44.300Z,14.50
2023-02-12T12:20:40.144Z,13.80
2023-02-12T12:23:36.177Z,15.20
2023-02-12T12:29:23.278Z,13.50
2023-02-12T12:32:16.898Z,12.30
2023-02-12T12:35:13.233Z,13.30
2023-02-12T12:38:08.286Z,12.70
2023-02-12T12:41:06.222Z,11.20
2023-02-12T12:44:05.187Z,10.40
2023-02-12T12:47:04.266Z,11.20
2023-02-12T12:50:01.069Z,13.60
2023-02-12T12:53:08.465Z,11.90
2023-02-12T12:56:16.124Z,13.50
2023-02-12T12:59:32.273Z,12.40
2023-02-12T13:03:01.125Z,11.50
2023-02-12T13:06:16.119Z,15.90
2023-02-12T13:09:24.938Z,12.00
2023-02-12T13:12:32.155Z,13.50
2023-02-12T13:15:37.432Z,12.40
2023-02-12T13:18:36.570Z,11.80
2023-02-12T13:21:38.136Z,12.50
2023-02-12T13:24:33.952Z,11.00
2023-02-12T13:27:28.001Z,13.00
2023-02-12T13:30:24.947Z,11.60
2023-02-12T13:33:21.328Z,13.80
2023-02-12T13:39:08.107Z,10.80
2023-02-12T13:42:08.685Z,12.00
2023-02-12T13:45:03.014Z,10.90
2023-02-12T13:48:07.389Z,11.80
2023-02-12T13:51:05.626Z,11.80
2023-02-12T13:54:05.777Z,13.00
2023-02-12T13:56:59.881Z,11.70
2023-02-12T13:59:54.764Z,13.10
2023-02-12T14:02:49.357Z,13.50
2023-02-12T14:05:42.670Z,15.00
2023-02-12T14:08:38.524Z,13.80
2023-02-12T14:14:29.600Z,14.30
2023-02-12T14:17:51.059Z,13.00
2023-02-12T14:20:44.397Z,11.70
2023-02-12T14:23:37.938Z,13.60
2023-02-12T14:26:31.878Z,14.10
2023-02-12T14:29:25.376Z,12.70
2023-02-12T14:32:58.183Z,14.00
2023-02-12T14:35:52.524Z,12.30
2023-02-12T14:39:03.258Z,13.10
2023-02-12T14:41:57.380Z,12.70
2023-02-12T14:44:51.175Z,13.30
2023-02-12T14:47:53.957Z,11.50
2023-02-12T14:50:52.065Z,13.20
2023-02-12T14:53:45.211Z,13.80
2023-02-12T14:56:41.120Z,11.80
2023-02-12T14:59:35.478Z,9.90
2023-02-12T15:02:29.357Z,13.50
2023-02-12T15:05:24.392Z,12.40
2023-02-12T15:08:23.708Z,11.60
2023-02-12T15:11:22.490Z,9.40
2023-02-12T15:14:18.144Z,9.60
2023-02-12T15:17:12.925Z,9.70
2023-02-12T15:20:08.688Z,11.90
2023-02-12T15:23:03.024Z,9.20
2023-02-12T15:25:56.672Z,7.40
2023-02-12T15:28:50.785Z,8.90
2023-02-12T15:31:43.886Z,9.30
2023-02-12T15:34:38.901Z,9.70
2023-02-12T15:37:32.364Z,8.30
2023-02-12T15:40:25.585Z,8.70
2023-02-12T15:43:20.565Z,10.10
2023-02-12T15:46:18.284Z,8.60
2023-02-12T15:49:25.673Z,10.80
2023-02-12T15:52:21.074Z,8.90
2023-02-12T15:55:18.021Z,8.60
2023-02-12T15:58:21.823Z,8.90
2023-02-12T16:01:18.930Z,9.30
2023-02-12T16:04:13.114Z,9.50
2023-02-12T16:07:06.247Z,10.10
2023-02-12T16:09:59.336Z,8.80
2023-02-12T16:12:52.533Z,8.30
2023-02-12T16:15:46.997Z,7.80
2023-02-12T16:18:40.688Z,7.60
2023-02-12T16:21:34.541Z,7.40
2023-02-12T16:24:33.004Z,7.80
2023-02-12T16:27:27.892Z,8.30
2023-02-12T16:30:31.137Z,7.30
2023-02-12T16:33:43.298Z,7.70
2023-02-12T16:36:36.721Z,7.00
2023-02-12T16:40:10.885Z,7.30
2023-02-12T16:43:21.835Z,7.60
2023-02-12T16:46:15.734Z,8.20
2023-02-12T16:49:11.344Z,8.50
2023-02-12T16:52:29.309Z,8.40
2023-02-12T16:55:22.936Z,8.40
2023-02-12T16:58:16.192Z,8.10
2023-02-12T17:01:09.380Z,8.50
2023-02-12T17:04:03.326Z,10.20
2023-02-12T17:06:56.691Z,9.30
2023-02-12T17:09:50.201Z,9.50
2023-02-12T17:12:48.441Z,10.30
2023-02-12T17:15:43.705Z,8.50
2023-02-12T17:18:37.423Z,10.60
2023-02-12T17:21:31.730Z,8.90
2023-02-12T17:24:25.910Z,8.20
2023-02-12T17:27:19.497Z,9.10
2023-02-12T17:30:15.383Z,8.40
2023-02-12T17:33:08.647Z,9.50
2023-02-12T17:36:01.925Z,9.90
2023-02-12T17:38:55.521Z,8.70
2023-02-12T17:41:48.837Z,9.30
2023-02-12T17:44:42.199Z,7.40
2023-02-12T17:47:39.757Z,10.40
2023-02-12T17:50:32.913Z,8.60
2023-02-12T17:53:26.058Z,9.80
2023-02-12T17:56:20.353Z,8.00
2023-02-12T17:59:13.715Z,8.80
2023-02-12T18:02:08.009Z,8.30
2023-02-12T18:05:01.442Z,9.20
2023-02-12T18:07:55.966Z,8.80
2023-02-12T18:10:49.018Z,7.80
2023-02-12T18:13:43.030Z,8.60
2023-02-12T18:16:36.561Z,7.90
2023-02-12T18:19:31.028Z,8.10
2023-02-12T18:22:24.297Z,7.40
2023-02-12T18:25:18.881Z,7.70
2023-02-12T18:28:12.300Z,6.60
2023-02-12T18:31:06.156Z,8.00
2023-02-12T18:33:59.438Z,8.60
2023-02-12T18:36:52.594Z,7.00
2023-02-12T18:39:45.964Z,5.90
2023-02-12T18:42:38.916Z,5.80
2023-02-12T18:45:32.064Z,6.30
2023-02-12T18:48:25.182Z,7.60
2023-02-12T18:51:19.501Z,7.50
2023-02-12T18:54:13.811Z,7.40
2023-02-12T18:57:07.135Z,8.30
2023-02-12T19:00:04.556Z,9.20
2023-02-12T19:02:57.704Z,6.20
2023-02-12T19:05:51.084Z,7.80
2023-02-12T19:08:44.203Z,7.80
2023-02-12T19:11:37.424Z,7.60
2023-02-12T19:14:30.953Z,8.40
2023-02-12T19:17:24.207Z,8.20
2023-02-12T19:20:17.563Z,7.00
2023-02-12T19:23:10.880Z,8.80
2023-02-12T19:26:06.589Z,13.00
2023-02-12T19:29:00.007Z,11.70
2023-02-12T19:31:53.349Z,14.40
2023-02-12T19:34:46.946Z,13.90
2023-02-12T19:37:40.012Z,12.40
2023-02-12T19:40:33.197Z,11.60
2023-02-12T19:43:26.396Z,13.00
2023-02-12T19:46:20.631Z,11.50
2023-02-12T19:49:16.703Z,11.30
2023-02-12T19:52:10.190Z,10.20
2023-02-12T19:55:03.361Z,10.50
2023-02-12T19:57:56.700Z,11.10
2023-02-12T20:00:50.246Z,10.10
2023-02-12T20:03:43.375Z,9.70
2023-02-12T20:06:37.729Z,7.90
2023-02-12T20:09:31.020Z,10.00
2023-02-12T20:12:24.621Z,10.40
2023-02-12T20:15:18.207Z,10.00
2023-02-12T20:18:11.360Z,9.40
2023-02-12T20:21:08.342Z,10.20
2023-02-12T20:24:02.251Z,8.50
2023-02-12T20:26:55.562Z,10.90
2023-02-12T20:29:49.277Z,8.90
2023-02-12T20:32:44.384Z,9.30
2023-02-12T20:35:38.008Z,9.80
2023-02-12T20:38:31.292Z,10.70
2023-02-12T20:41:24.635Z,10.60
2023-02-12T20:44:19.985Z,11.40
2023-02-12T20:47:13.275Z,9.30
2023-02-12T20:50:09.165Z,9.60
2023-02-12T20:53:02.596Z,9.50
2023-02-12T20:55:56.799Z,9.10
2023-02-12T20:58:50.963Z,8.80
2023-02-12T21:01:44.954Z,8.10
2023-02-12T21:04:38.070Z,7.80
2023-02-12T21:07:31.316Z,9.10
2023-02-12T21:10:25.236Z,9.00
2023-02-12T21:13:19.041Z,9.30
2023-02-12T21:16:17.504Z,8.70
2023-02-12T21:19:09.989Z,9.60
2023-02-12T21:22:03.794Z,9.60
2023-02-12T21:24:58.756Z,9.70
2023-02-12T21:27:51.929Z,10.50
2023-02-12T21:30:46.415Z,10.00
2023-02-12T21:33:41.197Z,9.30
2023-02-12T21:36:35.892Z,10.60
2023-02-12T21:39:30.209Z,10.70
2023-02-12T21:42:23.356Z,9.90
2023-02-12T21:45:16.672Z,9.40
2023-02-12T21:48:09.968Z,10.10
2023-02-12T21:51:03.882Z,9.90
2023-02-12T21:53:59.160Z,10.20
2023-02-12T21:56:53.346Z,10.00
2023-02-12T21:59:47.179Z,10.70
2023-02-12T22:02:41.067Z,12.30
2023-02-12T22:05:35.440Z,11.40
2023-02-12T22:08:29.512Z,10.80
2023-02-12T22:11:23.167Z,8.90
2023-02-12T22:14:18.009Z,11.30
2023-02-12T22:17:11.343Z,11.30
2023-02-12T22:20:05.730Z,11.60
2023-02-12T22:22:58.972Z,11.10
2023-02-12T22:25:52.794Z,10.60
2023-02-12T22:28:48.010Z,11.30
2023-02-12T22:31:42.276Z,10.80
2023-02-12T22:34:36.552Z,12.90
2023-02-12T22:37:30.843Z,10.70
2023-02-12T22:40:24.445Z,11.50
2023-02-12T22:43:18.384Z,10.70
2023-02-12T22:46:13.117Z,13.20
2023-02-12T22:49:06.405Z,12.00
2023-02-12T22:52:00.423Z,10.90
2023-02-12T22:54:54.240Z,12.90
2023-02-12T22:57:48.218Z,11.10
2023-02-12T23:00:42.515Z,12.30
2023-02-12T23:03:37.745Z,10.50
2023-02-12T23:06:32.304Z,11.20
2023-02-12T23:09:25.663Z,11.60
2023-02-12T23:12:19.580Z,11.50
2023-02-12T23:15:13.481Z,12.50
2023-02-12T23:18:07.637Z,10.40
2023-02-12T23:21:01.541Z,10.90
2023-02-12T23:23:55.404Z,11.50
2023-02-12T23:26:50.302Z,10.60
2023-02-12T23:29:44.100Z,10.80
2023-02-12T23:32:37.926Z,12.10
2023-02-12T23:35:31.790Z,10.40
2023-02-12T23:38:25.557Z,12.10
2023-02-12T23:41:19.350Z,10.80
2023-02-12T23:44:13.468Z,12.50
2023-02-12T23:47:08.271Z,10.50
2023-02-12T23:50:01.486Z,11.20
2023-02-12T23:52:55.351Z,11.50
2023-02-12T23:55:51.652Z,11.50
2023-02-12T23:58:44.830Z,12.00
